Time;durP1;ratioP1;P1;durP2;ratioP2;P2;SDS_P1;SDS_P2;PMS_P1;PMS_P2;Temp;Humidity;BMP_temperature;BMP_pressure;BME280_temperature;BME280_humidity;BME280_pressure;Samples;Min_cycle;Max_cycle;Signal;HPM_P1;HPM_P2
2021/07/03 00:02:01;;;;;;;1.17;1.08;;;22.50;97.70;;;;;;5031044;28;20095;-79
2021/07/03 00:04:27;;;;;;;0.80;0.80;;;22.30;97.60;;;;;;5030874;28;20401;-75
2021/07/03 00:06:53;;;;;;;1.20;1.10;;;22.40;98.00;;;;;;5030713;28;20026;-79
2021/07/03 00:09:19;;;;;;;1.25;1.15;;;22.20;98.20;;;;;;5029319;28;20041;-79
2021/07/03 00:11:46;;;;;;;0.90;0.90;;;22.50;98.00;;;;;;5030762;28;20033;-76
2021/07/03 00:14:13;;;;;;;1.10;1.00;;;22.60;97.50;;;;;;5030798;28;20025;-77
2021/07/03 00:16:38;;;;;;;1.38;1.27;;;22.80;98.80;;;;;;5030854;28;20118;-77
2021/07/03 00:19:05;;;;;;;1.27;1.10;;;22.70;99.40;;;;;;5030212;28;20140;-78
2021/07/03 00:21:30;;;;;;;0.93;0.93;;;22.80;99.90;;;;;;5030628;28;20049;-76
2021/07/03 00:23:57;;;;;;;1.50;1.40;;;22.60;99.90;;;;;;5030391;28;20397;-75
2021/07/03 00:26:23;;;;;;;0.80;0.80;;;22.80;99.90;;;;;;5044985;28;20029;-77
2021/07/03 00:28:49;;;;;;;4.22;2.15;;;22.60;99.90;;;;;;5054194;28;20031;-77
2021/07/03 00:31:15;;;;;;;0.90;0.90;;;22.70;99.90;;;;;;5054311;28;20025;-76
2021/07/03 00:33:40;;;;;;;0.80;0.80;;;22.80;99.90;;;;;;5052566;28;20075;-77
2021/07/03 00:36:06;;;;;;;1.38;1.27;;;22.90;99.90;;;;;;5054207;28;20090;-78
2021/07/03 00:38:32;;;;;;;1.00;1.00;;;23.00;99.90;;;;;;5052612;28;20045;-77
2021/07/03 00:40:58;;;;;;;1.00;1.00;;;23.00;99.90;;;;;;5053854;28;20056;-77
2021/07/03 00:43:24;;;;;;;3.38;1.88;;;22.90;99.90;;;;;;5053719;28;20068;-76
2021/07/03 00:45:50;;;;;;;1.17;1.08;;;22.60;99.90;;;;;;5054064;28;20057;-77
2021/07/03 00:48:15;;;;;;;0.95;0.95;;;22.60;99.90;;;;;;5053863;28;20108;-76
2021/07/03 00:50:41;;;;;;;0.82;0.82;;;22.70;99.90;;;;;;5054219;28;20067;-76
2021/07/03 00:53:07;;;;;;;1.00;1.00;;;22.60;99.90;;;;;;5053825;28;20037;-76
2021/07/03 00:55:33;;;;;;;1.15;1.00;;;22.60;99.90;;;;;;5054068;28;20048;-76
2021/07/03 00:57:59;;;;;;;0.80;0.80;;;22.80;99.90;;;;;;5053043;28;20041;-75
2021/07/03 01:00:25;;;;;;;1.05;1.02;;;22.80;99.90;;;;;;5053643;28;20029;-76
2021/07/03 01:02:51;;;;;;;0.80;0.80;;;22.90;99.90;;;;;;5053760;28;20039;-75
2021/07/03 01:05:17;;;;;;;0.80;0.80;;;22.90;99.90;;;;;;5053478;28;20485;-76
2021/07/03 01:07:43;;;;;;;1.10;1.00;;;22.90;99.90;;;;;;5053613;28;20436;-77
2021/07/03 01:10:21;;;;;;;1.27;1.17;;;22.80;99.90;;;;;;5053365;28;20480;-74
2021/07/03 01:12:47;;;;;;;0.90;0.90;;;22.60;99.90;;;;;;5053350;28;20029;-76
2021/07/03 01:15:14;;;;;;;0.90;0.90;;;22.50;99.90;;;;;;5053599;28;20037;-77
2021/07/03 01:17:39;;;;;;;1.27;1.17;;;22.50;99.90;;;;;;5053029;28;20044;-77
2021/07/03 01:20:06;;;;;;;1.00;1.00;;;22.30;99.90;;;;;;5051775;28;20053;-76
2021/07/03 01:22:33;;;;;;;6.32;2.78;;;22.20;99.90;;;;;;5053566;28;20029;-77
2021/07/03 01:24:59;;;;;;;0.90;0.90;;;22.20;99.90;;;;;;5053001;28;20362;-77
2021/07/03 01:27:25;;;;;;;0.95;0.95;;;22.20;99.90;;;;;;5031866;28;20061;-77
2021/07/03 01:29:51;;;;;;;1.23;1.13;;;22.30;99.90;;;;;;5033363;28;20438;-76
2021/07/03 01:32:17;;;;;;;0.80;0.80;;;22.20;99.90;;;;;;5033584;28;20040;-76
2021/07/03 01:34:43;;;;;;;0.90;0.90;;;22.50;99.90;;;;;;5032585;28;20037;-75
2021/07/03 01:37:09;;;;;;;1.20;1.10;;;22.60;99.90;;;;;;5032703;28;20053;-75
2021/07/03 01:39:35;;;;;;;0.85;0.85;;;22.60;99.90;;;;;;5033016;28;20075;-76
2021/07/03 01:42:02;;;;;;;0.98;0.98;;;22.60;99.90;;;;;;5033291;28;20033;-76
2021/07/03 01:44:28;;;;;;;1.13;1.10;;;22.60;99.90;;;;;;5032807;28;20041;-75
2021/07/03 01:46:58;;;;;;;0.80;0.80;;;22.50;99.90;;;;;;5033152;28;20034;-75
2021/07/03 01:49:25;;;;;;;;;;;22.40;99.90;;;;;;5032920;28;20033;-76
2021/07/03 01:51:51;;;;;;;0.80;0.80;;;22.60;99.90;;;;;;5031869;28;19966;-75
2021/07/03 01:54:18;;;;;;;1.17;1.10;;;22.70;99.90;;;;;;5032894;28;20155;-77
2021/07/03 01:56:44;;;;;;;1.00;1.00;;;22.70;99.90;;;;;;5032525;28;20096;-76
2021/07/03 01:59:11;;;;;;;1.17;1.10;;;22.70;99.90;;;;;;5032259;28;20034;-76
2021/07/03 02:01:37;;;;;;;0.80;0.80;;;22.60;99.90;;;;;;5032915;28;20032;-77
2021/07/03 02:04:03;;;;;;;1.27;1.20;;;22.60;99.90;;;;;;5032445;28;20037;-75
2021/07/03 02:06:29;;;;;;;0.80;0.80;;;22.50;99.90;;;;;;5032697;28;20025;-76
2021/07/03 02:08:55;;;;;;;0.80;0.80;;;22.60;99.90;;;;;;5032580;28;20454;-76
2021/07/03 02:11:20;;;;;;;0.80;0.80;;;22.50;99.90;;;;;;5032174;28;20036;-76
2021/07/03 02:13:46;;;;;;;0.80;0.80;;;22.60;99.90;;;;;;5032284;28;20037;-76
2021/07/03 02:16:12;;;;;;;0.90;0.90;;;22.50;99.90;;;;;;5032689;28;20060;-76
2021/07/03 02:18:38;;;;;;;0.90;0.90;;;22.30;99.90;;;;;;5031928;28;20049;-75
2021/07/03 02:21:03;;;;;;;0.95;0.95;;;22.50;99.90;;;;;;5032249;28;20375;-76
2021/07/03 02:23:29;;;;;;;0.90;0.90;;;22.60;99.90;;;;;;5032033;28;20084;-77
2021/07/03 02:25:55;;;;;;;1.38;1.27;;;22.70;99.90;;;;;;5037330;28;20572;-76
2021/07/03 02:28:21;;;;;;;0.90;0.90;;;22.70;99.90;;;;;;5050655;28;20097;-77
2021/07/03 02:30:47;;;;;;;1.05;1.05;;;22.50;99.90;;;;;;5052329;28;20035;-77
2021/07/03 02:33:13;;;;;;;0.80;0.80;;;22.50;99.90;;;;;;5051707;28;20029;-78
2021/07/03 02:35:39;;;;;;;1.02;1.00;;;22.60;99.90;;;;;;5051710;28;20489;-77
2021/07/03 02:38:05;;;;;;;2.75;2.55;;;22.50;99.90;;;;;;5051720;28;20041;-77
2021/07/03 02:40:31;;;;;;;0.90;0.90;;;22.50;99.90;;;;;;5051890;28;20512;-77
2021/07/03 02:42:56;;;;;;;0.80;0.80;;;22.20;99.90;;;;;;5051492;28;20033;-77
2021/07/03 02:45:23;;;;;;;0.82;0.82;;;22.20;99.90;;;;;;5051637;28;20037;-78
2021/07/03 02:47:49;;;;;;;2.50;1.55;;;22.30;99.90;;;;;;5051686;28;20037;-77
2021/07/03 02:50:17;;;;;;;1.10;1.02;;;22.30;99.90;;;;;;5051221;28;20034;-78
2021/07/03 02:52:44;;;;;;;0.85;0.85;;;22.40;99.90;;;;;;5051497;28;20117;-76
2021/07/03 02:55:11;;;;;;;0.80;0.80;;;22.40;99.90;;;;;;5051576;28;20040;-79
2021/07/03 02:57:37;;;;;;;1.77;1.38;;;22.50;99.90;;;;;;5050314;28;20078;-77
2021/07/03 03:00:13;;;;;;;1.45;1.33;;;22.50;99.90;;;;;;5051170;28;20033;-77
2021/07/03 03:02:39;;;;;;;1.55;1.45;;;22.40;99.90;;;;;;5051223;28;20029;-77
2021/07/03 03:05:07;;;;;;;0.90;0.90;;;22.40;99.90;;;;;;5051403;28;20037;-78
2021/07/03 03:07:38;;;;;;;1.85;1.75;;;22.30;99.90;;;;;;5051143;28;20033;-77
2021/07/03 03:10:05;;;;;;;1.60;1.50;;;22.30;99.90;;;;;;5049896;28;20041;-78
2021/07/03 03:12:31;;;;;;;1.27;1.17;;;22.30;99.90;;;;;;5051100;28;20488;-78
2021/07/03 03:14:57;;;;;;;2.08;1.77;;;22.40;99.90;;;;;;5050762;28;20039;-79
2021/07/03 03:17:23;;;;;;;2.33;2.13;;;22.40;99.90;;;;;;5051222;28;20029;-80
2021/07/03 03:19:49;;;;;;;2.35;2.15;;;22.40;99.90;;;;;;5051165;28;20128;-78
2021/07/03 03:22:14;;;;;;;2.00;1.83;;;22.30;99.90;;;;;;5051169;28;20107;-77
2021/07/03 03:24:40;;;;;;;2.65;1.83;;;22.40;99.90;;;;;;5050788;28;20381;-76
2021/07/03 03:27:06;;;;;;;1.38;1.27;;;22.40;99.90;;;;;;5036604;28;20037;-76
2021/07/03 03:29:32;;;;;;;0.90;0.90;;;22.40;99.90;;;;;;5030836;28;20037;-76
2021/07/03 03:31:57;;;;;;;1.50;1.40;;;22.30;99.90;;;;;;5031183;28;20033;-76
2021/07/03 03:34:23;;;;;;;1.33;1.23;;;22.40;99.90;;;;;;5030917;28;20041;-76
2021/07/03 03:36:49;;;;;;;1.75;1.65;;;22.30;99.90;;;;;;5031252;28;20448;-76
2021/07/03 03:39:15;;;;;;;1.73;1.63;;;22.40;99.90;;;;;;5031156;28;20665;-76
2021/07/03 03:41:41;;;;;;;1.45;1.35;;;22.50;99.90;;;;;;5030755;28;20034;-75
2021/07/03 03:44:06;;;;;;;1.30;1.20;;;22.40;99.90;;;;;;5031085;28;20040;-76
2021/07/03 03:46:32;;;;;;;1.00;1.00;;;22.40;99.90;;;;;;5030925;28;20022;-76
2021/07/03 03:48:58;;;;;;;0.90;0.90;;;22.40;99.90;;;;;;5031056;28;20108;-75
2021/07/03 03:51:24;;;;;;;1.65;1.55;;;22.50;99.90;;;;;;5030899;28;20049;-77
2021/07/03 03:53:50;;;;;;;1.42;1.33;;;22.40;99.90;;;;;;5030587;28;20029;-76
2021/07/03 03:56:15;;;;;;;0.93;0.93;;;22.40;99.90;;;;;;5030785;28;20116;-76
2021/07/03 03:58:41;;;;;;;0.90;0.90;;;22.40;99.90;;;;;;5031034;28;20045;-75
2021/07/03 04:01:07;;;;;;;1.15;1.05;;;22.50;99.90;;;;;;5031755;28;20455;-76
2021/07/03 04:03:33;;;;;;;0.90;0.90;;;22.40;99.90;;;;;;5034818;28;20028;-76
2021/07/03 04:05:58;;;;;;;1.33;1.23;;;22.40;99.90;;;;;;5035031;28;20492;-77
2021/07/03 04:08:24;;;;;;;0.93;0.93;;;22.30;99.90;;;;;;5034850;28;20087;-76
2021/07/03 04:10:50;;;;;;;1.00;1.00;;;22.40;99.90;;;;;;5034643;28;20037;-76
2021/07/03 04:13:16;;;;;;;0.90;0.90;;;22.50;99.90;;;;;;5034698;28;20045;-76
2021/07/03 04:15:42;;;;;;;0.90;0.90;;;22.50;99.90;;;;;;5034601;28;20033;-77
2021/07/03 04:18:08;;;;;;;1.15;1.05;;;21.90;99.90;;;;;;5034437;28;20056;-78
2021/07/03 04:20:33;;;;;;;1.33;1.20;;;22.10;99.90;;;;;;5035006;28;20052;-80
2021/07/03 04:22:59;;;;;;;1.17;1.08;;;22.00;99.90;;;;;;5034990;28;20121;-77
2021/07/03 04:25:25;;;;;;;1.13;1.08;;;22.10;99.90;;;;;;5033835;28;20040;-78
2021/07/03 04:27:51;;;;;;;1.95;1.63;;;21.60;99.90;;;;;;5053955;28;20025;-77
2021/07/03 04:30:18;;;;;;;2.58;2.35;;;21.60;99.90;;;;;;5054422;28;20116;-77
2021/07/03 04:32:44;;;;;;;1.48;1.38;;;21.70;99.90;;;;;;5054427;28;20096;-77
2021/07/03 04:35:13;;;;;;;1.27;1.17;;;21.70;99.90;;;;;;5054227;28;20041;-78
2021/07/03 04:37:39;;;;;;;1.25;1.15;;;21.40;99.90;;;;;;5054301;28;20037;-77
2021/07/03 04:40:07;;;;;;;0.90;0.90;;;21.20;99.90;;;;;;5053879;28;20393;-77
2021/07/03 04:42:33;;;;;;;0.90;0.90;;;21.30;99.90;;;;;;5054158;28;20489;-78
2021/07/03 04:44:59;;;;;;;0.90;0.90;;;21.50;99.90;;;;;;5053433;28;20044;-78
2021/07/03 04:47:24;;;;;;;0.90;0.90;;;21.50;99.90;;;;;;5052820;28;20033;-77
2021/07/03 04:49:50;;;;;;;0.90;0.90;;;21.50;99.90;;;;;;5053938;28;20370;-77
2021/07/03 04:52:16;;;;;;;0.95;0.93;;;21.70;99.90;;;;;;5054066;28;20037;-77
2021/07/03 04:54:42;;;;;;;1.88;1.77;;;21.90;99.90;;;;;;5053446;28;20029;-77
2021/07/03 04:57:07;;;;;;;0.90;0.90;;;22.20;99.90;;;;;;5053701;28;20043;-78
2021/07/03 04:59:38;;;;;;;0.90;0.90;;;22.10;99.90;;;;;;5053645;28;20141;-77
2021/07/03 05:02:04;;;;;;;;;;;22.10;99.90;;;;;;5054310;28;20063;-78
2021/07/03 05:04:30;;;;;;;1.27;1.17;;;22.20;99.90;;;;;;5053321;28;19920;-77
2021/07/03 05:06:56;;;;;;;1.30;1.20;;;22.10;99.90;;;;;;5052641;28;20033;-78
2021/07/03 05:09:21;;;;;;;2.67;1.73;;;22.20;99.90;;;;;;5053657;28;20029;-78
2021/07/03 05:11:47;;;;;;;0.90;0.90;;;22.10;99.90;;;;;;5052703;28;20110;-77
2021/07/03 05:14:13;;;;;;;1.42;1.33;;;22.30;99.90;;;;;;5053078;28;20060;-77
2021/07/03 05:16:39;;;;;;;0.88;0.88;;;22.40;99.90;;;;;;5053451;28;20098;-77
2021/07/03 05:19:04;;;;;;;7.45;1.90;;;22.40;99.90;;;;;;5053008;28;20392;-78
2021/07/03 05:21:30;;;;;;;1.33;1.23;;;22.20;99.90;;;;;;5053377;28;20029;-77
2021/07/03 05:23:56;;;;;;;1.00;1.00;;;22.30;99.90;;;;;;5052930;28;20108;-78
2021/07/03 05:26:21;;;;;;;1.92;1.83;;;22.30;99.90;;;;;;5047374;28;20481;-77
2021/07/03 05:28:47;;;;;;;0.80;0.80;;;22.20;99.90;;;;;;5033211;28;20041;-77
2021/07/03 05:31:13;;;;;;;1.45;1.35;;;22.00;99.90;;;;;;5033011;28;20037;-76
2021/07/03 05:33:39;;;;;;;1.75;1.65;;;22.40;99.90;;;;;;5033095;28;20037;-78
2021/07/03 05:36:04;;;;;;;0.80;0.80;;;22.50;99.90;;;;;;5033388;28;20117;-77
2021/07/03 05:38:39;;;;;;;0.82;0.82;;;22.80;99.90;;;;;;5031774;28;20136;-77
2021/07/03 05:41:05;;;;;;;0.80;0.80;;;22.90;99.90;;;;;;5032756;28;20036;-78
2021/07/03 05:43:30;;;;;;;0.80;0.80;;;23.00;99.90;;;;;;5032004;28;20033;-77
2021/07/03 05:45:56;;;;;;;0.88;0.88;;;22.90;99.90;;;;;;5032983;28;20394;-76
2021/07/03 05:48:22;;;;;;;1.33;1.25;;;22.90;99.90;;;;;;5032865;28;20100;-77
2021/07/03 05:50:48;;;;;;;0.80;0.80;;;22.80;99.90;;;;;;5033368;28;20044;-78
2021/07/03 05:53:14;;;;;;;1.13;1.02;;;22.80;99.90;;;;;;5031416;28;20030;-79
2021/07/03 05:55:40;;;;;;;1.13;1.00;;;22.80;99.90;;;;;;5032460;28;20116;-78
2021/07/03 05:58:05;;;;;;;0.90;0.90;;;22.80;99.90;;;;;;5031369;28;20045;-78
2021/07/03 06:00:31;;;;;;;0.90;0.90;;;22.70;99.90;;;;;;5032276;28;20033;-78
2021/07/03 06:02:57;;;;;;;1.20;1.10;;;22.70;99.90;;;;;;5031651;28;20165;-79
2021/07/03 06:05:22;;;;;;;0.70;0.70;;;22.80;99.90;;;;;;5032925;28;20041;-78
2021/07/03 06:07:48;;;;;;;0.85;0.85;;;23.00;99.90;;;;;;5032675;28;20504;-78
2021/07/03 06:10:14;;;;;;;0.70;0.70;;;22.90;99.90;;;;;;5032215;28;20485;-78
2021/07/03 06:12:42;;;;;;;1.05;0.98;;;22.90;99.90;;;;;;5030862;28;20052;-76
2021/07/03 06:15:09;;;;;;;0.70;0.70;;;23.10;99.90;;;;;;5032507;28;20045;-80
2021/07/03 06:17:35;;;;;;;0.82;0.82;;;23.30;99.90;;;;;;5032557;28;20029;-77
2021/07/03 06:20:00;;;;;;;1.42;1.27;;;23.40;99.90;;;;;;5031680;28;20108;-78
2021/07/03 06:22:26;;;;;;;0.90;0.90;;;23.50;99.90;;;;;;5032574;28;20030;-78
2021/07/03 06:24:52;;;;;;;1.50;1.40;;;23.60;99.90;;;;;;5031038;28;20521;-77
2021/07/03 06:27:18;;;;;;;0.80;0.80;;;23.60;99.90;;;;;;5043643;28;20685;-78
2021/07/03 06:29:43;;;;;;;1.25;1.15;;;23.70;99.90;;;;;;5051862;28;20044;-78
2021/07/03 06:32:10;;;;;;;0.75;0.75;;;23.60;99.90;;;;;;5051651;28;20029;-78
2021/07/03 06:34:36;;;;;;;0.85;0.85;;;23.50;99.90;;;;;;5051747;28;20041;-78
2021/07/03 06:37:02;;;;;;;0.70;0.70;;;23.30;99.80;;;;;;5051622;28;20078;-77
2021/07/03 06:39:28;;;;;;;0.93;0.93;;;23.50;99.90;;;;;;5051129;28;20056;-77
2021/07/03 06:41:53;;;;;;;0.70;0.70;;;23.50;99.70;;;;;;5051789;28;20029;-77
2021/07/03 06:44:19;;;;;;;0.70;0.70;;;23.70;99.70;;;;;;5051636;28;20504;-77
2021/07/03 06:46:48;;;;;;;1.27;1.23;;;23.90;99.80;;;;;;5051487;28;20036;-79
2021/07/03 06:49:15;;;;;;;0.95;0.90;;;23.90;98.10;;;;;;5051553;28;20554;-78
2021/07/03 06:51:41;;;;;;;5.75;1.13;;;24.00;98.10;;;;;;5051040;28;20040;-78
2021/07/03 06:54:07;;;;;;;0.80;0.80;;;23.80;97.00;;;;;;5051563;28;20033;-78
2021/07/03 06:56:33;;;;;;;0.70;0.70;;;23.80;98.10;;;;;;5051236;28;20107;-77
2021/07/03 06:58:59;;;;;;;1.67;1.58;;;23.90;98.50;;;;;;5050852;28;20040;-77
2021/07/03 07:01:25;;;;;;;0.60;0.60;;;23.90;97.40;;;;;;5051157;28;20029;-78
2021/07/03 07:03:51;;;;;;;0.80;0.80;;;23.90;97.60;;;;;;5051326;28;20033;-77
2021/07/03 07:06:17;;;;;;;0.88;0.88;;;23.90;97.50;;;;;;5051521;28;20037;-78
2021/07/03 07:08:42;;;;;;;1.08;0.98;;;23.80;97.40;;;;;;5051539;28;20071;-78
2021/07/03 07:11:08;;;;;;;0.80;0.80;;;23.70;97.10;;;;;;5051274;28;20542;-78
2021/07/03 07:13:34;;;;;;;0.60;0.60;;;23.50;96.50;;;;;;5050923;28;20033;-78
2021/07/03 07:16:00;;;;;;;0.70;0.70;;;23.50;96.70;;;;;;5051512;28;20029;-78
2021/07/03 07:18:25;;;;;;;0.60;0.60;;;23.50;97.50;;;;;;5050731;28;20037;-79
2021/07/03 07:20:51;;;;;;;0.60;0.60;;;23.70;97.80;;;;;;5051468;28;20041;-78
2021/07/03 07:23:17;;;;;;;2.15;1.33;;;23.70;96.90;;;;;;5050443;28;20029;-78
2021/07/03 07:25:43;;;;;;;0.77;0.77;;;23.70;96.80;;;;;;5051252;28;20037;-78
2021/07/03 07:28:09;;;;;;;0.70;0.70;;;23.00;96.90;;;;;;5033971;28;20108;-77
2021/07/03 07:30:34;;;;;;;2.05;1.85;;;23.20;97.90;;;;;;5030763;28;20109;-77
2021/07/03 07:33:00;;;;;;;1.08;1.05;;;23.40;97.60;;;;;;5029859;28;20061;-76
2021/07/03 07:35:26;;;;;;;0.90;0.90;;;23.40;98.10;;;;;;5029412;28;20041;-79
2021/07/03 07:37:52;;;;;;;1.17;1.10;;;23.50;98.10;;;;;;5030848;28;20041;-77
2021/07/03 07:40:18;;;;;;;0.82;0.82;;;23.80;97.60;;;;;;5030519;28;20041;-79
2021/07/03 07:42:45;;;;;;;1.15;0.90;;;23.90;98.10;;;;;;5031103;28;20030;-79
2021/07/03 07:45:11;;;;;;;0.70;0.70;;;24.20;97.30;;;;;;5030671;28;20030;-78
2021/07/03 07:47:37;;;;;;;0.90;0.90;;;24.20;96.90;;;;;;5021293;28;20046;-77
2021/07/03 07:50:05;;;;;;;2.20;2.00;;;24.10;96.90;;;;;;5018963;28;20038;-80
2021/07/03 07:52:32;;;;;;;0.80;0.80;;;23.70;96.00;;;;;;5019663;28;20033;-78
2021/07/03 07:54:58;;;;;;;1.95;1.85;;;23.60;96.60;;;;;;5020849;28;20037;-77
2021/07/03 07:57:24;;;;;;;4.22;3.83;;;23.70;96.90;;;;;;5019050;28;20026;-78
2021/07/03 07:59:50;;;;;;;9.63;5.95;;;23.80;96.90;;;;;;5019673;28;20034;-80
2021/07/03 08:02:16;;;;;;;9.52;7.53;;;24.00;96.50;;;;;;5018828;28;20026;-79
2021/07/03 08:04:41;;;;;;;4.95;3.95;;;24.30;96.30;;;;;;5018616;28;20112;-86
2021/07/03 08:07:08;;;;;;;1.70;1.60;;;24.40;95.40;;;;;;5021197;28;20579;-80
2021/07/03 08:09:34;;;;;;;3.22;2.90;;;24.20;95.30;;;;;;5018599;28;20026;-78
2021/07/03 08:12:02;;;;;;;3.90;3.30;;;24.50;95.20;;;;;;5017554;28;20100;-88
2021/07/03 08:14:28;;;;;;;5.18;4.28;;;24.40;94.90;;;;;;5019173;28;20026;-80
2021/07/03 08:16:54;;;;;;;2.40;2.20;;;24.40;94.60;;;;;;5019208;28;20033;-74
2021/07/03 08:19:20;;;;;;;1.25;1.15;;;24.30;94.40;;;;;;5020024;28;20393;-76
2021/07/03 08:21:46;;;;;;;1.98;1.75;;;24.20;94.10;;;;;;5019071;28;20037;-75
2021/07/03 08:24:11;;;;;;;0.60;0.60;;;24.20;94.30;;;;;;5018904;28;20026;-78
2021/07/03 08:26:37;;;;;;;0.65;0.65;;;24.40;94.40;;;;;;5020747;28;20539;-74
2021/07/03 08:29:03;;;;;;;0.60;0.60;;;24.50;93.70;;;;;;5018622;28;20110;-76
2021/07/03 08:31:30;;;;;;;0.70;0.70;;;24.70;93.50;;;;;;5021044;28;20465;-76
2021/07/03 08:33:56;;;;;;;0.88;0.88;;;24.70;93.30;;;;;;5030455;28;20054;-78
2021/07/03 08:36:22;;;;;;;1.25;1.15;;;25.00;93.20;;;;;;5030058;28;20033;-79
2021/07/03 08:38:48;;;;;;;2.10;1.92;;;24.90;92.70;;;;;;5029857;28;20563;-75
2021/07/03 08:41:15;;;;;;;1.30;1.20;;;25.00;92.10;;;;;;5028846;28;20132;-76
2021/07/03 08:43:48;;;;;;;0.80;0.80;;;25.20;92.10;;;;;;5030108;28;20059;-76
2021/07/03 08:46:18;;;;;;;0.82;0.80;;;25.40;91.40;;;;;;5030174;28;20051;-76
2021/07/03 08:48:46;;;;;;;0.70;0.70;;;25.50;90.80;;;;;;5033266;28;20034;-75
2021/07/03 08:51:12;;;;;;;0.52;0.52;;;25.60;91.10;;;;;;5033704;28;20042;-77
2021/07/03 08:53:37;;;;;;;0.90;0.80;;;25.80;90.90;;;;;;5033639;28;20056;-76
2021/07/03 08:56:03;;;;;;;0.50;0.50;;;25.80;89.20;;;;;;5033684;28;20060;-76
2021/07/03 08:58:29;;;;;;;0.80;0.80;;;23.90;86.80;;;;;;5033769;28;20485;-78
2021/07/03 09:00:55;;;;;;;0.80;0.80;;;23.40;88.20;;;;;;5033305;28;20100;-79
2021/07/03 09:03:22;;;;;;;1.27;1.00;;;23.50;88.30;;;;;;5033440;28;20075;-78
2021/07/03 09:05:52;;;;;;;1.00;0.88;;;24.30;89.10;;;;;;5034039;28;20041;-81
2021/07/03 09:08:20;;;;;;;0.47;0.47;;;24.50;86.20;;;;;;5033443;28;20076;-78
2021/07/03 09:10:47;;;;;;;0.68;0.68;;;24.50;85.80;;;;;;5033605;28;20108;-79
2021/07/03 09:13:13;;;;;;;0.60;0.60;;;24.60;84.20;;;;;;5033416;28;20033;-79
2021/07/03 09:15:43;;;;;;;0.70;0.70;;;24.90;85.70;;;;;;5033637;28;20050;-79
2021/07/03 09:18:12;;;;;;;0.57;0.57;;;25.40;85.50;;;;;;5032967;28;20045;-76
2021/07/03 09:20:43;;;;;;;0.68;0.68;;;25.80;83.80;;;;;;5033364;28;20072;-78
2021/07/03 09:23:13;;;;;;;0.90;0.90;;;25.50;82.50;;;;;;5031694;28;20464;-77
2021/07/03 09:25:51;;;;;;;0.70;0.70;;;25.70;82.40;;;;;;5033248;28;20038;-76
2021/07/03 09:28:22;;;;;;;0.70;0.70;;;25.90;81.80;;;;;;5046515;28;20120;-76
2021/07/03 09:30:55;;;;;;;0.45;0.45;;;26.20;79.70;;;;;;5053222;28;20029;-77
2021/07/03 09:33:26;;;;;;;0.85;0.80;;;26.20;78.40;;;;;;5052920;28;20025;-79
2021/07/03 09:35:56;;;;;;;1.45;1.25;;;26.50;79.20;;;;;;5053250;28;20091;-78
2021/07/03 09:38:37;;;;;;;0.50;0.50;;;27.00;78.80;;;;;;5052784;28;20048;-78
2021/07/03 09:41:11;;;;;;;;;;;27.10;78.20;;;;;;5052837;28;20036;-77
2021/07/03 09:43:52;;;;;;;0.50;0.50;;;27.00;74.30;;;;;;5052770;28;20007;-76
2021/07/03 09:46:51;;;;;;;0.55;0.55;;;27.10;75.20;;;;;;5052644;28;20118;-77
2021/07/03 09:49:25;;;;;;;0.95;0.85;;;26.60;73.60;;;;;;5052293;28;20041;-82
2021/07/03 09:51:56;;;;;;;0.93;0.93;;;26.80;74.30;;;;;;5052795;28;20388;-80
2021/07/03 09:54:31;;;;;;;0.77;0.77;;;27.10;75.00;;;;;;5051256;28;20040;-80
2021/07/03 09:57:01;;;;;;;0.55;0.55;;;27.00;74.00;;;;;;5052721;28;20382;-83
2021/07/03 09:59:34;;;;;;;0.53;0.53;;;27.00;73.80;;;;;;5051920;28;20120;-78
2021/07/03 10:02:01;;;;;;;0.70;0.70;;;26.30;73.20;;;;;;5052820;28;20025;-79
2021/07/03 10:04:27;;;;;;;0.98;0.75;;;25.50;74.20;;;;;;5052469;28;20049;-80
2021/07/03 10:07:20;;;;;;;0.50;0.50;;;26.40;75.00;;;;;;5052539;28;20435;-80
2021/07/03 10:09:55;;;;;;;1.23;1.13;;;26.70;72.30;;;;;;5052240;28;20035;-79
2021/07/03 10:12:30;;;;;;;1.23;1.13;;;26.80;72.70;;;;;;5052493;28;20054;-74
2021/07/03 10:14:56;;;;;;;1.02;0.95;;;26.80;72.00;;;;;;5051703;28;20017;-76
2021/07/03 10:17:24;;;;;;;9.93;5.20;;;26.60;70.40;;;;;;5051870;28;20035;-77
2021/07/03 10:19:51;;;;;;;0.50;0.50;;;26.70;70.80;;;;;;5051866;28;20048;-76
2021/07/03 10:22:23;;;;;;;0.63;0.63;;;26.20;69.90;;;;;;5050707;28;20388;-76
2021/07/03 10:24:55;;;;;;;0.70;0.70;;;25.90;70.40;;;;;;5051827;28;20106;-75
2021/07/03 10:27:29;;;;;;;1.08;0.98;;;26.70;72.20;;;;;;5043233;28;20036;-74
2021/07/03 10:30:00;;;;;;;0.45;0.45;;;26.90;67.90;;;;;;5021599;28;20114;-75
2021/07/03 10:32:33;;;;;;;0.40;0.40;;;25.80;68.80;;;;;;5020512;28;20095;-74
2021/07/03 10:35:14;;;;;;;0.50;0.50;;;25.50;70.00;;;;;;5025709;28;20042;-73
2021/07/03 10:37:40;;;;;;;0.60;0.60;;;26.10;69.60;;;;;;5016789;28;20358;-74
2021/07/03 10:40:20;;;;;;;1.45;1.10;;;26.50;69.50;;;;;;5023139;28;20056;-75
2021/07/03 10:42:46;;;;;;;0.60;0.60;;;26.20;67.30;;;;;;5022535;28;20520;-74
2021/07/03 10:45:22;;;;;;;1.52;0.98;;;25.00;69.90;;;;;;5019135;28;20164;-73
2021/07/03 10:47:53;;;;;;;1.08;1.02;;;25.40;69.90;;;;;;5012017;28;20042;-78
2021/07/03 10:50:31;;;;;;;;;;;25.40;69.80;;;;;;5012495;28;20026;-77
2021/07/03 10:52:58;;;;;;;1.20;1.10;;;26.00;72.10;;;;;;5027469;28;19936;-77
2021/07/03 10:55:34;;;;;;;7.75;3.88;;;26.60;73.60;;;;;;5031223;28;20030;-80
2021/07/03 10:58:11;;;;;;;2.05;1.88;;;26.60;70.90;;;;;;5029932;28;20128;-75
2021/07/03 11:00:37;;;;;;;2.72;2.03;;;26.70;72.60;;;;;;5030114;28;20033;-76
2021/07/03 11:03:12;;;;;;;4.18;3.65;;;26.70;72.00;;;;;;5031196;28;20095;-77
2021/07/03 11:05:37;;;;;;;4.93;3.75;;;26.80;71.40;;;;;;5029037;28;20096;-76
2021/07/03 11:08:14;;;;;;;3.15;2.75;;;27.10;70.80;;;;;;5030170;28;20041;-77
2021/07/03 11:10:41;;;;;;;3.83;2.58;;;27.30;70.20;;;;;;5030569;28;20087;-78
2021/07/03 11:13:17;;;;;;;2.50;2.28;;;27.20;69.60;;;;;;5031057;28;20033;-76
2021/07/03 11:15:43;;;;;;;0.77;0.75;;;27.30;69.10;;;;;;5030792;28;20041;-76
2021/07/03 11:18:09;;;;;;;0.75;0.65;;;27.40;68.50;;;;;;5011267;28;20061;-77
2021/07/03 11:20:37;;;;;;;0.57;0.57;;;27.20;68.90;;;;;;5011734;28;20050;-77
2021/07/03 11:23:05;;;;;;;1.25;0.93;;;27.00;69.00;;;;;;5010716;28;20037;-77
2021/07/03 11:25:38;;;;;;;0.80;0.80;;;26.90;69.10;;;;;;5011408;28;20469;-77
2021/07/03 11:28:19;;;;;;;8.18;3.20;;;27.00;69.70;;;;;;5021481;28;20095;-76
2021/07/03 11:30:53;;;;;;;2.67;2.17;;;26.90;68.80;;;;;;5030767;28;20516;-77
2021/07/03 11:33:19;;;;;;;0.77;0.77;;;27.10;68.70;;;;;;4991642;28;20038;-79
2021/07/03 11:35:46;;;;;;;1.20;0.95;;;27.20;68.70;;;;;;4991506;28;20049;-76
2021/07/03 11:38:14;;;;;;;0.45;0.45;;;26.70;68.50;;;;;;5009180;28;20038;-78
2021/07/03 11:40:40;;;;;;;1.90;1.17;;;27.10;69.30;;;;;;5011159;28;20060;-77
2021/07/03 11:43:07;;;;;;;1.42;1.33;;;27.40;68.60;;;;;;5010888;28;20359;-76
2021/07/03 11:45:35;;;;;;;2.55;2.17;;;27.40;68.20;;;;;;5011018;28;20044;-77
2021/07/03 11:48:09;;;;;;;1.00;0.95;;;27.20;67.90;;;;;;5010745;28;20045;-77
2021/07/03 11:50:38;;;;;;;0.75;0.65;;;27.10;68.40;;;;;;5011121;28;20112;-75
2021/07/03 11:53:05;;;;;;;0.80;0.80;;;27.00;68.30;;;;;;5010937;28;20034;-76
2021/07/03 11:55:37;;;;;;;0.50;0.50;;;27.00;67.90;;;;;;5010795;28;20100;-76
2021/07/03 11:58:04;;;;;;;0.40;0.40;;;27.00;68.90;;;;;;4993416;28;20042;-76
2021/07/03 12:00:35;;;;;;;0.63;0.60;;;26.80;68.00;;;;;;5010894;28;20109;-76
2021/07/03 12:03:08;;;;;;;0.50;0.50;;;26.60;67.90;;;;;;5010772;28;20041;-77
2021/07/03 12:05:38;;;;;;;2.10;1.70;;;26.40;68.40;;;;;;4993168;28;20050;-74
2021/07/03 12:08:06;;;;;;;0.52;0.52;;;26.30;67.80;;;;;;5011065;28;20030;-75
2021/07/03 12:10:33;;;;;;;0.88;0.88;;;26.40;68.90;;;;;;5010733;28;20034;-74
2021/07/03 12:12:59;;;;;;;1.90;1.75;;;26.40;69.20;;;;;;5009842;28;20030;-75
2021/07/03 12:15:26;;;;;;;2.05;1.95;;;26.40;69.00;;;;;;5010573;28;20095;-75
2021/07/03 12:17:52;;;;;;;0.52;0.52;;;26.40;68.80;;;;;;4993403;28;20037;-75
2021/07/03 12:20:20;;;;;;;0.75;0.75;;;26.40;69.00;;;;;;5011068;28;20125;-77
2021/07/03 12:22:58;;;;;;;1.35;0.93;;;26.40;68.70;;;;;;5012766;28;20022;-75
2021/07/03 12:25:24;;;;;;;0.85;0.70;;;26.30;68.40;;;;;;4996165;28;20034;-75
2021/07/03 12:28:02;;;;;;;0.52;0.52;;;26.40;69.20;;;;;;5021261;28;20104;-75
2021/07/03 12:30:32;;;;;;;0.60;0.60;;;26.60;68.90;;;;;;5034052;28;20033;-76
2021/07/03 12:33:09;;;;;;;0.57;0.57;;;26.70;69.10;;;;;;5033809;28;20069;-76
2021/07/03 12:35:38;;;;;;;0.93;0.68;;;26.40;68.30;;;;;;5033825;28;20128;-76
2021/07/03 12:38:06;;;;;;;0.73;0.73;;;26.40;68.20;;;;;;5033942;28;20033;-78
2021/07/03 12:40:35;;;;;;;0.40;0.40;;;26.10;68.10;;;;;;5034148;28;20029;-76
2021/07/03 12:43:01;;;;;;;0.70;0.70;;;26.20;68.90;;;;;;5018973;28;20042;-76
2021/07/03 12:45:27;;;;;;;0.60;0.60;;;26.50;68.40;;;;;;5013640;28;20394;-76
2021/07/03 12:48:20;;;;;;;0.40;0.40;;;26.90;67.00;;;;;;5014172;28;20030;-78
2021/07/03 12:50:56;;;;;;;0.60;0.60;;;27.10;67.20;;;;;;5010254;28;20049;-75